RJTT/HND METAR and TAF weather

Enter ICAO airport designator
Station Type Date Time Source
RJTT METAR 2022/12/08 13:00 UTC NOAA

RJTT 081300Z 02009KT 9999 FEW030 BKN/// 10/03 Q1020 NOSIG RMK 1CU030 A3012


Station Type Date Time Source
RJTT Decoded METAR 2022/12/08 13:00 UTC NOAA

Tokyo International Airport, Japan (RJTT) 35-33N 139-47E 8M
Dec 08, 2022 - 08:00 AM EST / 2022.12.08 1300 UTC
Wind: from the NNE (020 degrees) at 10 MPH (9 KT):0
Visibility: greater than 7 mile(s):0
Sky conditions: mostly cloudy
Temperature: 50 F (10 C)
Dew Point: 37 F (3 C)
Relative Humidity: 61%
Pressure (altimeter): 30.12 in. Hg (1020 hPa)
ob: RJTT 081300Z 02009KT 9999 FEW030 BKN/// 10/03 Q1020 NOSIG RMK 1CU030 A3012
cycle: 13

Station Type Date Time Source
RJTT TAF 2022/12/08 12:34 UTC NOAA

TAF RJTT 081105Z 0812/0918 02008KT 9999 FEW030
BECMG 0900/0903 14005KT
BECMG 0912/0915 36008KT

Example: see airport list